Terminal Aerodrome Forecast
Issued by NWS

Home | Current Version | Previous Version | Text Only | Print | Product List | Glossary On
Versions: 1 2 3 4 5 6 7 8 9 10 11 12 13 14 15
103
FTUS44 KLZK 250535
TAFPBF
TAF
KPBF 250535Z 2506/2606 27004KT P6SM SKC
     FM251500 19008KT P6SM SKC
     FM260100 16006KT P6SM SCT250=

USA.gov is the U.S. government's official web portal to all federal, state and local government web resources and services.